Time;durP1;ratioP1;P1;durP2;ratioP2;P2;SDS_P1;SDS_P2;PMS_P1;PMS_P2;Temp;Humidity;BMP_temperature;BMP_pressure;BME280_temperature;BME280_humidity;BME280_pressure;Samples;Min_cycle;Max_cycle;Signal;HPM_P1;HPM_P2
2022/11/27 00:00:58;;;;;;;;;3.00;1.00;;;;;6.22;80.19;100922.66;5115228;28;9477;-55
2022/11/27 00:03:26;;;;;;;;;2.20;2.20;;;;;6.19;80.34;100914.84;5115855;28;8958;-58
2022/11/27 00:05:54;;;;;;;;;2.60;1.40;;;;;6.16;80.35;100917.66;5115939;28;8843;-58
2022/11/27 00:08:22;;;;;;;;;3.60;3.20;;;;;6.12;80.39;100906.34;5116054;28;8820;-56
2022/11/27 00:10:50;;;;;;;;;1.00;1.00;;;;;6.13;80.25;100909.84;5116434;28;8847;-57
2022/11/27 00:13:17;;;;;;;;;4.20;4.20;;;;;6.11;80.03;100909.06;5115844;28;8832;-56
2022/11/27 00:15:46;;;;;;;;;3.00;3.00;;;;;6.07;80.54;100912.78;5115917;28;8837;-57
2022/11/27 00:18:14;;;;;;;;;3.00;3.00;;;;;6.04;80.06;100919.06;5115656;28;8832;-56
2022/11/27 00:20:42;;;;;;;;;4.60;3.00;;;;;6.03;80.02;100905.91;5115455;28;9497;-58
2022/11/27 00:23:10;;;;;;;;;4.00;3.00;;;;;5.99;79.69;100904.34;5115649;28;8958;-56
2022/11/27 00:25:37;;;;;;;;;1.00;1.00;;;;;5.94;80.15;100895.75;5116311;28;8862;-57
2022/11/27 00:28:05;;;;;;;;;2.60;1.80;;;;;5.90;80.38;100902.09;5116215;28;8855;-58
2022/11/27 00:30:33;;;;;;;;;2.20;2.20;;;;;5.86;80.30;100893.44;5115884;28;8938;-57
2022/11/27 00:33:01;;;;;;;;;3.00;3.00;;;;;5.83;79.90;100898.88;5116555;28;9536;-57
2022/11/27 00:35:28;;;;;;;;;1.00;1.00;;;;;5.80;80.27;100892.88;5116120;28;8820;-58
2022/11/27 00:37:56;;;;;;;;;3.20;3.00;;;;;5.76;80.14;100891.28;5116075;28;8854;-57
2022/11/27 00:40:27;;;;;;;;;1.00;1.00;;;;;5.72;80.40;100885.28;5116282;28;8824;-55
2022/11/27 00:42:55;;;;;;;;;3.20;3.20;;;;;5.67;80.54;100881.09;5115640;28;8858;-56
2022/11/27 00:45:23;;;;;;;;;1.00;1.00;;;;;5.65;80.52;100893.53;5115900;28;8850;-57
2022/11/27 00:47:50;;;;;;;;;3.00;3.00;;;;;5.64;80.70;100891.81;5116046;28;8827;-56
2022/11/27 00:50:18;;;;;;;;;1.40;1.00;;;;;5.63;80.67;100883.03;5118040;28;8824;-55
2022/11/27 00:52:47;;;;;;;;;1.00;1.00;;;;;5.63;80.79;100882.19;5119782;28;8812;-56
2022/11/27 00:55:15;;;;;;;;;2.60;2.60;;;;;5.61;80.45;100884.03;5119565;28;8858;-56
2022/11/27 00:57:43;;;;;;;;;6.20;4.00;;;;;5.60;81.01;100891.09;5119785;28;8920;-58
2022/11/27 01:00:11;;;;;;;;;6.40;6.40;;;;;5.57;80.31;100891.25;5119506;28;8824;-58
2022/11/27 01:02:39;;;;;;;;;2.60;2.20;;;;;5.54;80.56;100869.41;5119653;28;8823;-56
2022/11/27 01:05:06;;;;;;;;;10.60;7.80;;;;;5.53;80.56;100865.03;5119800;28;8812;-57
2022/11/27 01:07:34;;;;;;;;;4.00;4.00;;;;;5.52;80.29;100863.28;5119789;28;8848;-57
2022/11/27 01:10:02;;;;;;;;;17.20;13.80;;;;;5.50;80.87;100873.94;5119596;28;8833;-57
2022/11/27 01:12:29;;;;;;;;;6.20;4.80;;;;;5.48;80.38;100870.50;5119572;28;8824;-58
2022/11/27 01:14:57;;;;;;;;;5.20;4.40;;;;;5.45;80.20;100864.50;5119099;28;8842;-58
2022/11/27 01:17:25;;;;;;;;;10.80;9.00;;;;;5.43;80.25;100861.94;5119203;28;8842;-57
2022/11/27 01:19:52;;;;;;;;;10.80;9.20;;;;;5.40;80.53;100872.63;5118932;28;8816;-58
2022/11/27 01:22:20;;;;;;;;;10.40;8.20;;;;;5.37;80.42;100877.16;5119239;28;8859;-57
2022/11/27 01:24:48;;;;;;;;;3.60;3.00;;;;;5.31;80.65;100882.75;5118105;28;8824;-58
2022/11/27 01:27:15;;;;;;;;;4.00;4.00;;;;;5.26;80.51;100888.19;5117891;28;8820;-57
2022/11/27 01:29:44;;;;;;;;;10.00;9.00;;;;;5.20;80.90;100885.84;5117801;28;8828;-58
2022/11/27 01:32:12;;;;;;;;;10.40;9.60;;;;;5.16;81.11;100891.31;5117961;28;8808;-58
2022/11/27 01:34:39;;;;;;;;;1.80;0.00;;;;;5.15;80.96;100885.16;5117881;28;8844;-58
2022/11/27 01:37:08;;;;;;;;;4.00;3.80;;;;;5.12;80.92;100887.94;5118584;28;8831;-58
2022/11/27 01:39:35;;;;;;;;;7.00;7.00;;;;;5.10;80.59;100878.38;5118805;28;8824;-58
2022/11/27 01:42:03;;;;;;;;;3.40;3.20;;;;;5.05;81.63;100869.78;5118670;28;8840;-58
2022/11/27 01:44:31;;;;;;;;;15.00;15.00;;;;;5.01;81.10;100858.50;5119122;28;8842;-58
2022/11/27 01:46:59;;;;;;;;;1.00;1.00;;;;;5.04;81.38;100868.06;5119120;28;8823;-57
2022/11/27 01:49:27;;;;;;;;;9.40;9.40;;;;;5.11;80.69;100864.25;5118982;28;8832;-58
2022/11/27 01:51:54;;;;;;;;;9.40;9.00;;;;;5.13;80.46;100854.47;5118713;28;8832;-58
2022/11/27 01:54:24;;;;;;;;;6.40;4.80;;;;;5.14;80.53;100849.16;5118434;28;8816;-58
2022/11/27 01:56:51;;;;;;;;;6.20;5.20;;;;;5.11;80.75;100849.28;5118463;28;8823;-58
2022/11/27 01:59:19;;;;;;;;;5.20;5.20;;;;;5.11;80.66;100859.84;5118750;28;8815;-58
2022/11/27 02:01:46;;;;;;;;;1.40;1.40;;;;;5.11;80.56;100857.22;5117170;28;8819;-58
2022/11/27 02:04:14;;;;;;;;;6.00;5.60;;;;;5.09;81.18;100866.09;5118373;28;8847;-58
2022/11/27 02:06:42;;;;;;;;;1.00;0.60;;;;;5.08;81.05;100864.41;5119031;28;8827;-58
2022/11/27 02:09:10;;;;;;;;;1.40;1.00;;;;;5.03;80.98;100863.72;5118886;28;8823;-57
2022/11/27 02:11:38;;;;;;;;;3.00;3.00;;;;;4.98;81.13;100857.78;5118069;28;8812;-58
2022/11/27 02:14:05;;;;;;;;;3.00;3.00;;;;;4.92;81.12;100863.31;5118752;28;8839;-58
2022/11/27 02:16:33;;;;;;;;;3.40;3.40;;;;;4.87;81.01;100854.75;5118735;28;8823;-58
2022/11/27 02:19:02;;;;;;;;;3.00;3.00;;;;;4.87;81.21;100846.81;5118957;28;8835;-58
2022/11/27 02:21:30;;;;;;;;;1.00;1.00;;;;;4.92;80.74;100850.97;5118602;28;8836;-58
2022/11/27 02:23:57;;;;;;;;;0.60;0.60;;;;;4.97;80.83;100842.88;5118400;28;8890;-58
2022/11/27 02:26:25;;;;;;;;;6.00;3.20;;;;;5.01;80.35;100832.09;5118014;28;8831;-58
2022/11/27 02:28:53;;;;;;;;;0.00;0.00;;;;;5.09;80.52;100826.53;5118233;28;8823;-58
2022/11/27 02:31:24;;;;;;;;;3.00;3.00;;;;;5.14;80.49;100820.09;5118392;28;9493;-58
2022/11/27 02:33:52;;;;;;;;;1.00;0.60;;;;;5.17;80.10;100816.47;5118374;28;8823;-58
2022/11/27 02:36:19;;;;;;;;;3.60;3.00;;;;;5.20;80.21;100819.84;5117966;28;8904;-58
2022/11/27 02:38:47;;;;;;;;;1.80;1.80;;;;;5.22;80.08;100806.56;5118249;28;8843;-58
2022/11/27 02:41:14;;;;;;;;;1.00;1.00;;;;;5.21;80.26;100812.75;5117736;28;8843;-58
2022/11/27 02:43:43;;;;;;;;;1.00;0.00;;;;;5.21;80.78;100802.22;5117865;28;8938;-57
2022/11/27 02:46:10;;;;;;;;;3.00;2.60;;;;;5.20;80.54;100811.06;5117755;28;8836;-58
2022/11/27 02:48:38;;;;;;;;;1.00;1.00;;;;;5.19;80.35;100804.06;5117738;28;8840;-57
2022/11/27 02:51:05;;;;;;;;;3.00;1.80;;;;;5.22;79.98;100809.19;5117937;28;8860;-58
2022/11/27 02:53:34;;;;;;;;;1.40;1.00;;;;;5.21;80.19;100803.06;5117389;28;8801;-58
2022/11/27 02:56:02;;;;;;;;;0.00;0.00;;;;;5.19;79.88;100809.34;5117955;28;8843;-58
2022/11/27 02:58:30;;;;;;;;;1.00;1.00;;;;;5.15;80.44;100791.91;5116813;28;8835;-58
2022/11/27 03:00:58;;;;;;;;;1.00;1.00;;;;;5.12;80.69;100795.56;5117045;28;8835;-58
2022/11/27 03:03:25;;;;;;;;;0.00;0.00;;;;;5.10;79.84;100788.63;5117545;28;8816;-58
2022/11/27 03:05:53;;;;;;;;;1.00;1.00;;;;;5.10;80.17;100778.09;5117339;28;8812;-58
2022/11/27 03:08:21;;;;;;;;;4.00;4.00;;;;;5.07;80.37;100767.63;5116502;28;8831;-58
2022/11/27 03:10:48;;;;;;;;;3.00;2.20;;;;;5.06;80.79;100769.44;5116443;28;8958;-57
2022/11/27 03:13:16;;;;;;;;;1.00;1.00;;;;;5.09;80.04;100765.81;5115995;28;8832;-58
2022/11/27 03:15:44;;;;;;;;;1.00;1.00;;;;;5.09;80.08;100755.25;5116376;28;8832;-58
2022/11/27 03:18:12;;;;;;;;;3.00;2.60;;;;;5.11;80.44;100750.75;5117210;28;9676;-57
2022/11/27 03:20:40;;;;;;;;;1.00;1.00;;;;;5.16;79.63;100744.34;5116833;28;8828;-58
2022/11/27 03:23:07;;;;;;;;;0.00;0.00;;;;;5.23;80.30;100744.94;5116965;28;8907;-58
2022/11/27 03:25:35;;;;;;;;;1.00;1.00;;;;;5.26;79.48;100748.28;5117535;28;8815;-57
2022/11/27 03:28:03;;;;;;;;;2.20;2.20;;;;;5.28;79.80;100735.00;5116992;28;9520;-58
2022/11/27 03:30:30;;;;;;;;;1.00;1.00;;;;;5.29;79.94;100739.34;5117071;28;8844;-58
2022/11/27 03:32:58;;;;;;;;;1.00;1.00;;;;;5.34;79.69;100732.97;5116768;28;8808;-58
2022/11/27 03:35:26;;;;;;;;;3.00;1.00;;;;;5.41;79.39;100729.09;5116679;28;8859;-58
2022/11/27 03:37:54;;;;;;;;;1.00;1.00;;;;;5.48;79.27;100727.03;5116999;28;8824;-57
2022/11/27 03:40:21;;;;;;;;;1.40;0.80;;;;;5.55;78.84;100726.66;5117341;28;8820;-58
2022/11/27 03:42:49;;;;;;;;;1.40;1.40;;;;;5.62;78.93;100728.09;5117061;28;8820;-58
2022/11/27 03:45:19;;;;;;;;;1.00;1.00;;;;;5.69;78.51;100731.31;5117494;28;8815;-58
2022/11/27 03:47:47;;;;;;;;;3.00;3.00;;;;;5.74;78.19;100738.09;5116707;28;8836;-58
2022/11/27 03:50:14;;;;;;;;;1.80;1.80;;;;;5.82;78.39;100729.81;5116699;28;8835;-57
2022/11/27 03:52:42;;;;;;;;;1.00;1.00;;;;;5.85;78.17;100732.34;5117002;28;8916;-57
2022/11/27 03:55:09;;;;;;;;;0.60;0.60;;;;;5.86;78.26;100721.66;5117119;28;8820;-58
2022/11/27 03:57:39;;;;;;;;;1.00;1.00;;;;;5.89;77.97;100716.25;5117101;28;8839;-58
2022/11/27 04:00:07;;;;;;;;;1.00;1.00;;;;;5.98;77.80;100720.22;5116710;28;8832;-58
2022/11/27 04:02:34;;;;;;;;;1.00;1.00;;;;;6.06;77.24;100724.22;5116589;28;8824;-58
2022/11/27 04:05:02;;;;;;;;;3.80;3.80;;;;;6.12;77.14;100718.63;5117181;28;8816;-57
2022/11/27 04:07:29;;;;;;;;;3.20;3.00;;;;;6.17;77.46;100718.41;5116712;28;8902;-58
2022/11/27 04:09:57;;;;;;;;;1.40;1.00;;;;;6.19;77.56;100729.75;5116753;28;8831;-58
2022/11/27 04:12:25;;;;;;;;;1.40;1.40;;;;;6.21;77.36;100714.69;5116475;28;8908;-59
2022/11/27 04:14:52;;;;;;;;;6.00;4.00;;;;;6.21;77.00;100715.53;5116482;28;8908;-59
2022/11/27 04:17:20;;;;;;;;;1.00;1.00;;;;;6.24;76.92;100725.97;5116510;28;8831;-59
2022/11/27 04:19:47;;;;;;;;;3.00;1.40;;;;;6.25;77.01;100740.91;5116574;28;8896;-59
2022/11/27 04:22:15;;;;;;;;;0.80;0.80;;;;;6.26;76.59;100731.16;5116710;28;8832;-58
2022/11/27 04:24:43;;;;;;;;;1.00;1.00;;;;;6.26;77.10;100721.47;5116165;28;8900;-59
2022/11/27 04:27:11;;;;;;;;;3.60;3.00;;;;;6.26;76.79;100720.59;5116386;28;8816;-58
2022/11/27 04:29:38;;;;;;;;;2.60;2.60;;;;;6.26;76.70;100707.38;5116649;28;8878;-58
2022/11/27 04:32:06;;;;;;;;;2.60;2.60;;;;;6.29;76.63;100723.09;5116562;28;8851;-58
2022/11/27 04:34:34;;;;;;;;;1.00;1.00;;;;;6.33;76.74;100708.78;5116454;28;8850;-58
2022/11/27 04:37:02;;;;;;;;;1.00;0.60;;;;;6.33;76.87;100709.66;5116579;28;8832;-58
2022/11/27 04:39:29;;;;;;;;;3.60;3.40;;;;;6.33;76.71;100716.72;5116328;28;8838;-58
2022/11/27 04:41:57;;;;;;;;;3.40;3.40;;;;;6.32;76.92;100715.00;5116490;28;8827;-58
2022/11/27 04:44:25;;;;;;;;;3.20;3.00;;;;;6.30;76.58;100707.13;5116192;28;8920;-59
2022/11/27 04:46:53;;;;;;;;;2.20;2.20;;;;;6.32;76.88;100693.84;5116165;28;8850;-58
2022/11/27 04:49:21;;;;;;;;;1.00;1.00;;;;;6.34;77.17;100692.84;5116150;28;8815;-58
2022/11/27 04:51:49;;;;;;;;;1.80;1.80;;;;;6.34;76.41;100691.97;5116590;28;8832;-58
2022/11/27 04:54:16;;;;;;;;;1.00;1.00;;;;;6.31;76.86;100684.22;5116018;28;8990;-59
2022/11/27 04:56:44;;;;;;;;;1.40;1.00;;;;;6.28;77.28;100684.34;5115961;28;8839;-58
2022/11/27 04:59:12;;;;;;;;;1.80;1.80;;;;;6.27;76.58;100675.56;5116384;28;8912;-58
2022/11/27 05:01:39;;;;;;;;;1.00;1.00;;;;;6.28;76.92;100679.91;5116396;28;8831;-58
2022/11/27 05:04:07;;;;;;;;;2.20;2.20;;;;;6.31;76.80;100686.84;5116086;28;8917;-58
2022/11/27 05:06:35;;;;;;;;;1.00;1.00;;;;;6.33;76.31;100674.41;5115728;28;8820;-58
2022/11/27 05:09:02;;;;;;;;;0.80;0.00;;;;;6.39;76.55;100669.69;5115727;28;8812;-58
2022/11/27 05:11:32;;;;;;;;;3.00;1.00;;;;;6.45;76.80;100664.03;5115163;28;8824;-57
2022/11/27 05:14:15;;;;;;;;;0.40;0.20;;;;;6.49;76.50;100667.38;5114170;28;8823;-58
2022/11/27 05:16:43;;;;;;;;;3.20;2.20;;;;;6.55;76.04;100649.44;5114601;28;8836;-58
2022/11/27 05:19:10;;;;;;;;;2.60;2.60;;;;;6.58;75.90;100638.69;5114950;28;8832;-58
2022/11/27 05:21:38;;;;;;;;;1.00;1.00;;;;;6.58;75.88;100635.16;5115417;28;8921;-58
2022/11/27 05:24:06;;;;;;;;;0.80;0.80;;;;;6.56;76.17;100637.03;5115639;28;8804;-58
2022/11/27 05:26:33;;;;;;;;;3.00;1.80;;;;;6.54;76.61;100633.63;5116015;28;8876;-58
2022/11/27 05:29:01;;;;;;;;;1.40;1.40;;;;;6.51;76.45;100633.78;5116096;28;8901;-57
2022/11/27 05:31:29;;;;;;;;;1.00;1.00;;;;;6.51;76.11;100628.50;5115526;28;8898;-58
2022/11/27 05:33:57;;;;;;;;;3.60;3.00;;;;;6.50;76.21;100621.47;5115640;28;9276;-59
2022/11/27 05:36:25;;;;;;;;;3.60;2.80;;;;;6.46;76.50;100618.13;5118037;28;8815;-58
2022/11/27 05:38:52;;;;;;;;;0.60;0.60;;;;;6.45;76.55;100615.59;5119571;28;8885;-59
2022/11/27 05:41:20;;;;;;;;;1.00;1.00;;;;;6.48;75.94;100618.06;5119230;28;8827;-58
2022/11/27 05:43:47;;;;;;;;;3.20;2.60;;;;;6.59;76.28;100610.44;5119050;28;8836;-57
2022/11/27 05:46:15;;;;;;;;;1.80;1.00;;;;;6.66;76.13;100611.84;5118639;28;8815;-59
2022/11/27 05:48:43;;;;;;;;;3.00;1.80;;;;;6.72;76.03;100601.75;5118426;28;8836;-59
2022/11/27 05:51:11;;;;;;;;;2.20;2.20;;;;;6.77;75.44;100593.56;5118630;28;8828;-59
2022/11/27 05:53:39;;;;;;;;;2.20;2.20;;;;;6.80;75.21;100580.16;5118830;28;8836;-56
2022/11/27 05:56:06;;;;;;;;;4.20;3.40;;;;;6.85;75.04;100594.00;5118910;28;8808;-59
2022/11/27 05:58:34;;;;;;;;;3.60;3.00;;;;;6.88;75.33;100593.84;5119060;28;8815;-58
2022/11/27 06:01:02;;;;;;;;;1.00;1.00;;;;;6.94;74.63;100591.72;5119235;28;8896;-59
2022/11/27 06:03:29;;;;;;;;;2.60;2.60;;;;;6.98;74.38;100592.41;5119228;28;8834;-59
2022/11/27 06:05:57;;;;;;;;;2.60;1.00;;;;;7.01;74.38;100589.59;5118902;28;8839;-59
2022/11/27 06:08:25;;;;;;;;;3.40;3.40;;;;;7.04;74.70;100581.50;5118521;28;8827;-58
2022/11/27 06:10:53;;;;;;;;;1.80;1.00;;;;;7.07;73.99;100581.31;5119131;28;8838;-58
2022/11/27 06:13:20;;;;;;;;;1.00;1.00;;;;;7.10;74.07;100582.00;5119201;28;8889;-59
2022/11/27 06:15:48;;;;;;;;;6.60;6.00;;;;;7.13;73.93;100591.56;5118675;28;8839;-59
2022/11/27 06:18:16;;;;;;;;;3.80;3.00;;;;;7.13;74.06;100588.94;5119041;28;8858;-59
2022/11/27 06:20:43;;;;;;;;;7.00;5.60;;;;;7.13;74.18;100575.69;5118806;28;8832;-59
2022/11/27 06:23:21;;;;;;;;;7.00;7.00;;;;;7.13;73.92;100587.13;5118926;28;8923;-59
2022/11/27 06:25:48;;;;;;;;;5.60;4.00;;;;;7.13;73.87;100586.28;5118439;28;8820;-59
2022/11/27 06:28:16;;;;;;;;;4.80;3.80;;;;;7.13;73.96;100580.97;5118347;28;8909;-58
2022/11/27 06:30:43;;;;;;;;;4.80;4.60;;;;;7.12;73.93;100569.53;5118678;28;8866;-59
2022/11/27 06:33:12;;;;;;;;;3.40;3.20;;;;;7.12;73.92;100574.81;5118684;28;8812;-58
2022/11/27 06:35:43;;;;;;;;;2.20;2.20;;;;;7.10;73.94;100574.06;5118301;28;9524;-55
2022/11/27 06:38:10;;;;;;;;;4.80;4.00;;;;;7.10;73.91;100568.75;5118167;28;8843;-58
2022/11/27 06:40:38;;;;;;;;;4.40;2.20;;;;;7.09;73.68;100567.06;5118142;28;8819;-58
2022/11/27 06:43:06;;;;;;;;;1.00;1.00;;;;;7.08;74.00;100565.34;5118018;28;8832;-58
2022/11/27 06:45:34;;;;;;;;;5.60;4.00;;;;;7.07;74.23;100582.19;5118187;28;8824;-56
2022/11/27 06:48:01;;;;;;;;;5.60;3.00;;;;;7.08;74.20;100593.63;5117312;28;8832;-58
2022/11/27 06:50:29;;;;;;;;;4.00;4.00;;;;;7.09;74.19;100590.03;5117834;28;8840;-58
2022/11/27 06:52:57;;;;;;;;;3.60;3.40;;;;;7.11;73.92;100594.28;5117329;28;8824;-59
2022/11/27 06:55:25;;;;;;;;;3.80;3.80;;;;;7.15;73.98;100584.38;5117684;28;8907;-58
2022/11/27 06:57:53;;;;;;;;;6.00;6.00;;;;;7.17;73.42;100582.50;5117158;28;8971;-58
2022/11/27 07:00:22;;;;;;;;;6.00;4.80;;;;;7.19;73.53;100573.53;5117781;28;8844;-58
2022/11/27 07:02:51;;;;;;;;;6.60;4.00;;;;;7.22;74.11;100569.88;5117039;28;8800;-58
2022/11/27 07:05:19;;;;;;;;;4.00;4.00;;;;;7.25;73.79;100567.03;5117190;28;8836;-57
2022/11/27 10:46:13;;;;;;;;;3.00;3.00;;;;;10.32;64.51;100367.31;5068688;28;8864;-58
2022/11/27 10:48:42;;;;;;;;;1.00;1.00;;;;;10.36;65.10;100363.50;5091832;28;8811;-59
2022/11/27 10:51:09;;;;;;;;;1.50;1.50;;;;;10.43;64.64;100370.09;5081633;28;8831;-59
2022/11/27 10:53:37;;;;;;;;;2.00;2.00;;;;;10.49;64.84;100361.66;5076416;28;8932;-56
2022/11/27 10:56:05;;;;;;;;;1.00;1.00;;;;;10.56;64.82;100352.22;5076665;28;8832;-55
2022/11/27 10:58:33;;;;;;;;;2.00;2.00;;;;;10.62;64.52;100340.31;5076642;28;8963;-57
2022/11/27 11:01:01;;;;;;;;;1.00;1.00;;;;;10.70;64.14;100346.75;5076776;28;8842;-57
2022/11/27 11:03:30;;;;;;;;;3.00;3.00;;;;;10.76;63.60;100338.31;5076425;28;8848;-59
2022/11/27 11:05:58;;;;;;;;;2.00;1.00;;;;;10.79;63.19;100332.78;5075300;28;8929;-58
2022/11/27 11:08:46;;;;;;;;;0.50;0.00;;;;;10.84;63.23;100337.75;5075733;28;8849;-59
2022/11/27 11:11:14;;;;;;;;;3.00;2.50;;;;;10.89;63.25;100339.13;5076057;28;8832;-59
2022/11/27 11:13:42;;;;;;;;;1.50;1.00;;;;;10.95;63.00;100332.47;5075209;28;8844;-60
2022/11/27 11:16:10;;;;;;;;;0.00;0.00;;;;;11.02;62.71;100334.56;5075763;28;8941;-59
2022/11/27 11:18:41;;;;;;;;;2.50;1.00;;;;;11.10;63.02;100328.66;5075393;28;8840;-58
2022/11/27 11:21:10;;;;;;;;;3.25;1.00;;;;;11.14;63.06;100330.97;5075493;28;8854;-59
2022/11/27 11:23:38;;;;;;;;;1.00;1.00;;;;;11.15;62.66;100322.00;5074322;28;8883;-58
2022/11/27 11:26:07;;;;;;;;;1.00;1.00;;;;;11.17;62.95;100325.41;5072700;28;8856;-56
2022/11/27 11:28:34;;;;;;;;;3.00;3.00;;;;;11.15;62.76;100322.00;5073182;28;8859;-59
2022/11/27 11:31:06;;;;;;;;;2.00;2.00;;;;;11.12;62.73;100316.03;5071672;28;8986;-59
2022/11/27 11:33:34;;;;;;;;;0.75;0.50;;;;;11.11;62.68;100317.88;5072394;28;8858;-58
2022/11/27 11:36:02;;;;;;;;;0.25;0.25;;;;;11.09;62.73;100317.13;5071212;28;8832;-59
2022/11/27 11:38:30;;;;;;;;;0.75;0.50;;;;;11.07;63.22;100308.41;5070602;28;9108;-59
2022/11/27 11:40:58;;;;;;;;;1.00;1.00;;;;;11.07;62.48;100302.25;5071619;28;8835;-57
2022/11/27 11:43:26;;;;;;;;;1.50;1.00;;;;;11.04;62.56;100298.00;5072555;28;8836;-57
2022/11/27 11:45:55;;;;;;;;;1.00;1.00;;;;;11.02;62.63;100299.94;5072522;28;8867;-58
2022/11/27 11:48:23;;;;;;;;;1.00;1.00;;;;;11.01;62.78;100292.03;5071322;28;9010;-58
2022/11/27 11:50:51;;;;;;;;;3.00;3.00;;;;;10.99;62.32;100289.47;5070623;28;8832;-56
2022/11/27 11:53:19;;;;;;;;;4.50;4.50;;;;;10.99;62.21;100281.50;5071679;28;8840;-58
2022/11/27 11:55:47;;;;;;;;;2.00;2.00;;;;;11.00;62.37;100277.84;5071174;28;8839;-58
2022/11/27 11:58:16;;;;;;;;;0.00;0.00;;;;;11.01;62.20;100266.22;5071898;28;9629;-59
2022/11/27 12:00:44;;;;;;;;;3.00;3.00;;;;;11.04;61.50;100257.16;5072993;28;8832;-58
2022/11/27 12:03:32;;;;;;;;;0.50;0.50;;;;;11.09;61.88;100258.50;5073112;28;8861;-57
2022/11/27 12:06:00;;;;;;;;;0.50;0.50;;;;;11.16;61.80;100248.22;5073626;28;8862;-57
2022/11/27 12:08:31;;;;;;;;;1.00;1.00;;;;;11.20;61.84;100253.19;5072855;28;8871;-58
2022/11/27 12:10:59;;;;;;;;;1.00;1.00;;;;;11.26;61.57;100239.41;5073197;28;8844;-58
2022/11/27 12:13:27;;;;;;;;;1.00;0.50;;;;;11.33;61.42;100237.97;5073695;28;8922;-59
2022/11/27 12:15:59;;;;;;;;;1.00;1.00;;;;;11.36;60.77;100232.38;5073246;28;8856;-58
2022/11/27 12:18:27;;;;;;;;;1.50;1.00;;;;;11.40;61.20;100217.84;5073103;28;8970;-58
2022/11/27 12:20:57;;;;;;;;;0.50;0.50;;;;;11.43;60.51;100208.75;5073274;28;8828;-58
2022/11/27 12:23:27;;;;;;;;;2.00;1.00;;;;;11.48;61.00;100204.75;5073747;28;8898;-58
2022/11/27 12:25:55;;;;;;;;;1.50;1.50;;;;;11.54;60.59;100192.75;5073473;28;8870;-59
2022/11/27 12:28:23;;;;;;;;;2.00;0.25;;;;;11.56;59.86;100194.34;5073323;28;8851;-58
2022/11/27 12:30:50;;;;;;;;;2.50;2.50;;;;;11.60;59.56;100182.47;5073139;28;9498;-58
2022/11/27 12:33:19;;;;;;;;;1.00;1.00;;;;;11.64;60.10;100175.06;5072509;28;8945;-58
2022/11/27 12:35:48;;;;;;;;;0.75;0.75;;;;;11.65;59.56;100177.63;5071890;28;8978;-59
2022/11/27 12:38:16;;;;;;;;;1.00;1.00;;;;;11.68;59.83;100165.88;5071298;28;8895;-57
2022/11/27 12:40:44;;;;;;;;;1.00;1.00;;;;;11.67;59.16;100159.66;5071192;28;8963;-59
2022/11/27 12:43:12;;;;;;;;;1.00;1.00;;;;;11.67;59.38;100162.34;5072218;28;8832;-57
2022/11/27 12:45:39;;;;;;;;;1.00;1.00;;;;;11.68;58.97;100153.34;5071897;28;8863;-59
2022/11/27 12:48:08;;;;;;;;;1.00;1.00;;;;;11.70;59.69;100145.25;5075391;28;8834;-57
2022/11/27 12:50:36;;;;;;;;;0.00;0.00;;;;;11.73;59.76;100143.16;5075248;28;8826;-59
2022/11/27 12:53:04;;;;;;;;;0.25;0.25;;;;;11.77;59.37;100128.63;5074858;28;8829;-58
2022/11/27 12:55:32;;;;;;;;;1.00;1.00;;;;;11.80;58.90;100139.03;5074780;28;8846;-57
2022/11/27 12:58:02;;;;;;;;;1.00;1.00;;;;;11.80;58.91;100133.69;5074093;28;8842;-59
2022/11/27 13:00:30;;;;;;;;;1.00;1.00;;;;;11.83;58.10;100130.75;5076155;28;8826;-57
2022/11/27 13:02:58;;;;;;;;;2.50;1.00;;;;;11.83;58.75;100133.44;5076618;28;8860;-57
2022/11/27 13:05:27;;;;;;;;;1.00;1.00;;;;;11.81;58.99;100134.53;5076300;28;8909;-59
2022/11/27 13:07:54;;;;;;;;;5.00;5.00;;;;;11.78;58.69;100124.97;5076399;28;8915;-59
2022/11/27 13:10:22;;;;;;;;;1.00;1.00;;;;;11.75;58.35;100130.53;5076953;28;8842;-59
2022/11/27 13:12:51;;;;;;;;;1.00;1.00;;;;;11.72;58.90;100130.81;5077053;28;8978;-58
2022/11/27 13:15:19;;;;;;;;;1.50;1.00;;;;;11.67;59.43;100132.16;5077399;28;9572;-60
2022/11/27 13:17:47;;;;;;;;;5.25;1.00;;;;;11.62;59.32;100121.88;5077656;28;8939;-59
2022/11/27 13:20:15;;;;;;;;;1.50;1.00;;;;;11.55;59.17;100107.31;5077380;28;9542;-59
2022/11/27 13:22:44;;;;;;;;;1.00;1.00;;;;;11.50;59.21;100101.47;5077796;28;8833;-59
2022/11/27 13:25:13;;;;;;;;;1.00;1.00;;;;;11.44;59.24;100095.81;5077265;28;8939;-59
2022/11/27 13:27:41;;;;;;;;;0.00;0.00;;;;;11.37;58.84;100084.75;5076264;28;8842;-59
2022/11/27 13:30:08;;;;;;;;;0.00;0.00;;;;;11.34;59.61;100084.16;5076871;28;8822;-59
2022/11/27 13:32:36;;;;;;;;;3.00;1.00;;;;;11.30;59.69;100067.56;5076406;28;8850;-59
2022/11/27 13:35:05;;;;;;;;;1.00;1.00;;;;;11.24;59.42;100061.88;5076900;28;8838;-59
2022/11/27 13:37:33;;;;;;;;;1.00;1.00;;;;;11.18;60.25;100046.38;5076151;28;8829;-59
2022/11/27 13:40:01;;;;;;;;;3.00;3.00;;;;;11.11;59.51;100051.38;5076349;28;8955;-58
2022/11/27 13:42:29;;;;;;;;;0.00;0.00;;;;;11.06;59.55;100042.88;5077031;28;8813;-59
2022/11/27 13:44:57;;;;;;;;;2.00;1.50;;;;;11.01;59.43;100042.38;5076999;28;8837;-59
2022/11/27 13:47:27;;;;;;;;;1.00;1.00;;;;;10.96;59.72;100044.59;5077038;28;8825;-59
2022/11/27 13:49:55;;;;;;;;;5.00;3.50;;;;;10.92;60.24;100047.63;5076483;28;8836;-59
2022/11/27 13:52:23;;;;;;;;;0.75;0.75;;;;;10.88;60.33;100052.34;5076681;28;8850;-59
2022/11/27 13:54:51;;;;;;;;;1.00;1.00;;;;;10.85;60.08;100047.25;5076812;28;8837;-59
2022/11/27 13:57:20;;;;;;;;;1.00;0.25;;;;;10.82;60.03;100046.63;5074422;28;8872;-59
2022/11/27 13:59:49;;;;;;;;;3.75;3.00;;;;;10.78;60.13;100030.06;5072808;28;8850;-58
2022/11/27 14:02:17;;;;;;;;;1.00;1.00;;;;;10.75;60.18;100032.97;5073321;28;8956;-58
2022/11/27 14:04:45;;;;;;;;;0.50;0.50;;;;;10.73;60.37;100037.59;5075305;28;8826;-59
2022/11/27 14:07:19;;;;;;;;;1.00;1.00;;;;;10.72;60.11;100040.34;5075562;28;8829;-59
2022/11/27 14:09:47;;;;;;;;;1.00;1.00;;;;;10.71;59.76;100026.19;5075624;28;8833;-59
2022/11/27 14:12:15;;;;;;;;;0.50;0.25;;;;;10.69;59.97;100025.47;5075373;28;8830;-59
2022/11/27 14:14:43;;;;;;;;;0.75;0.75;;;;;10.68;60.11;100018.44;5075837;28;8854;-59
2022/11/27 14:17:12;;;;;;;;;1.00;1.00;;;;;10.68;59.75;100021.09;5075362;28;8834;-59
2022/11/27 14:19:39;;;;;;;;;3.00;3.00;;;;;10.64;59.95;100022.34;5075111;28;8829;-59
2022/11/27 14:22:07;;;;;;;;;1.00;1.00;;;;;10.63;59.78;100033.91;5075555;28;8926;-59
2022/11/27 14:24:39;;;;;;;;;2.00;2.00;;;;;10.62;60.60;100036.72;5075355;28;8836;-59
2022/11/27 14:27:08;;;;;;;;;3.50;3.50;;;;;10.61;59.92;100041.19;5075479;28;8844;-59
2022/11/27 14:29:36;;;;;;;;;3.50;2.00;;;;;10.60;60.24;100036.84;5075360;28;8818;-59
2022/11/27 14:32:04;;;;;;;;;1.50;1.50;;;;;10.60;60.19;100044.81;5076014;28;8841;-59
2022/11/27 14:34:32;;;;;;;;;4.00;3.00;;;;;10.60;60.31;100044.81;5075985;28;8852;-59
2022/11/27 14:37:00;;;;;;;;;1.50;1.50;;;;;10.57;60.73;100033.56;5075742;28;8837;-59
2022/11/27 14:39:28;;;;;;;;;1.00;0.00;;;;;10.56;60.83;100031.88;5074787;28;8876;-59
2022/11/27 14:41:56;;;;;;;;;0.00;0.00;;;;;10.54;60.61;100037.31;5074359;28;8826;-59
2022/11/27 14:44:24;;;;;;;;;0.75;0.75;;;;;10.52;61.15;100028.59;5074672;28;8838;-59
2022/11/27 14:46:52;;;;;;;;;2.00;1.00;;;;;10.49;61.30;100028.84;5073677;28;9542;-59
2022/11/27 14:49:20;;;;;;;;;2.50;1.00;;;;;10.48;60.84;100032.44;5073603;28;8930;-59
2022/11/27 14:51:49;;;;;;;;;1.00;1.00;;;;;10.45;60.89;100038.03;5073804;28;8840;-59
2022/11/27 14:54:17;;;;;;;;;0.00;0.00;;;;;10.44;61.27;100036.34;5073574;28;9543;-59
2022/11/27 14:56:45;;;;;;;;;0.50;0.50;;;;;10.41;61.21;100033.91;5074557;28;8848;-55
2022/11/27 14:59:13;;;;;;;;;4.00;3.00;;;;;10.41;61.13;100035.72;5074606;28;8838;-59
2022/11/27 15:01:41;;;;;;;;;3.00;3.00;;;;;10.41;61.53;100036.56;5074674;28;8845;-59
2022/11/27 15:04:09;;;;;;;;;0.00;0.00;;;;;10.40;61.41;100032.19;5074592;28;8956;-59
2022/11/27 15:06:37;;;;;;;;;2.00;1.00;;;;;10.37;61.42;100032.44;5074971;28;8814;-59
2022/11/27 15:09:05;;;;;;;;;3.00;1.00;;;;;10.37;61.45;100029.78;5074381;28;9263;-59
2022/11/27 15:11:54;;;;;;;;;1.00;1.00;;;;;10.35;61.49;100031.72;5074668;28;8923;-59
2022/11/27 15:14:23;;;;;;;;;0.00;0.00;;;;;10.35;61.28;100037.06;5072785;28;8858;-59
2022/11/27 15:16:51;;;;;;;;;1.00;1.00;;;;;10.34;61.51;100034.50;5072625;28;8842;-59
2022/11/27 15:19:19;;;;;;;;;1.00;1.00;;;;;10.35;61.11;100026.41;5072281;28;8849;-59
2022/11/27 15:21:48;;;;;;;;;1.00;1.00;;;;;10.34;60.64;100027.38;5072775;28;8833;-57